createdAt,value
2018-05-18T00:00:45.742Z,14.30
2018-05-18T00:03:14.795Z,13.90
2018-05-18T00:05:43.026Z,14.10
2018-05-18T00:08:12.162Z,14.10
2018-05-18T00:10:40.384Z,13.90
2018-05-18T00:13:08.622Z,13.70
2018-05-18T00:15:36.890Z,13.70
2018-05-18T00:18:05.137Z,13.60
2018-05-18T00:20:34.152Z,13.80
2018-05-18T00:23:03.215Z,13.90
2018-05-18T00:25:31.460Z,13.60
2018-05-18T00:27:59.702Z,13.50
2018-05-18T00:30:29.153Z,13.50
2018-05-18T00:32:57.383Z,13.30
2018-05-18T00:35:26.391Z,13.60
2018-05-18T00:37:55.514Z,13.70
2018-05-18T00:40:23.756Z,13.70
2018-05-18T00:42:52.763Z,13.70
2018-05-18T00:45:21.793Z,13.80
2018-05-18T00:47:50.020Z,13.60
2018-05-18T00:50:18.278Z,13.70
2018-05-18T00:52:46.533Z,13.60
2018-05-18T00:55:26.711Z,13.70
2018-05-18T00:57:54.993Z,13.70
2018-05-18T01:00:23.256Z,13.60
2018-05-18T01:02:51.526Z,13.50
2018-05-18T01:05:19.783Z,13.30
2018-05-18T01:07:48.045Z,13.50
2018-05-18T01:10:17.056Z,13.80
2018-05-18T01:12:46.097Z,13.80
2018-05-18T01:15:14.320Z,13.90
2018-05-18T01:17:42.565Z,14.00
2018-05-18T01:20:10.863Z,14.10
2018-05-18T01:22:39.100Z,14.00
2018-05-18T01:25:07.389Z,13.60
2018-05-18T01:27:35.674Z,13.80
2018-05-18T01:30:03.932Z,13.60
2018-05-18T01:32:32.205Z,13.60
2018-05-18T01:35:01.325Z,13.90
2018-05-18T01:37:29.584Z,13.90
2018-05-18T01:39:57.829Z,13.80
2018-05-18T01:42:26.097Z,13.60
2018-05-18T01:44:54.335Z,13.20
2018-05-18T01:47:22.724Z,13.40
2018-05-18T01:49:51.021Z,13.20
2018-05-18T01:52:19.281Z,13.10
2018-05-18T01:54:47.521Z,13.30
2018-05-18T01:57:15.790Z,13.30
2018-05-18T01:59:44.051Z,13.40
2018-05-18T02:02:12.288Z,13.30
2018-05-18T02:04:40.568Z,13.20
2018-05-18T02:07:08.830Z,13.10
2018-05-18T02:09:37.070Z,13.50
2018-05-18T02:12:06.888Z,13.20
2018-05-18T02:14:35.156Z,13.40
2018-05-18T02:17:03.397Z,13.50
2018-05-18T02:19:32.437Z,13.50
2018-05-18T02:22:00.694Z,13.30
2018-05-18T02:24:29.715Z,13.20
2018-05-18T02:26:58.000Z,13.10
2018-05-18T02:29:26.235Z,12.80
2018-05-18T02:31:55.244Z,13.20
2018-05-18T02:34:24.444Z,13.40
2018-05-18T02:36:53.462Z,13.20
2018-05-18T02:39:21.704Z,13.20
2018-05-18T02:41:49.969Z,13.30
2018-05-18T02:44:18.296Z,13.40
2018-05-18T02:46:46.547Z,12.80
2018-05-18T02:49:16.299Z,13.30
2018-05-18T02:51:44.535Z,13.10
2018-05-18T02:54:13.566Z,13.00
2018-05-18T02:56:42.589Z,13.00
2018-05-18T02:59:10.839Z,13.00
2018-05-18T03:01:39.844Z,12.90
2018-05-18T03:04:08.120Z,12.90
2018-05-18T03:06:36.362Z,12.90
2018-05-18T03:09:04.604Z,12.90
2018-05-18T03:11:32.857Z,13.10
2018-05-18T03:14:01.113Z,13.10
2018-05-18T03:16:29.348Z,13.00
2018-05-18T03:18:57.718Z,13.00
2018-05-18T03:21:25.969Z,12.80
2018-05-18T03:23:54.977Z,12.80
2018-05-18T03:26:24.057Z,13.00
2018-05-18T03:28:52.233Z,12.80
2018-05-18T03:31:21.237Z,12.80
2018-05-18T03:33:50.269Z,12.90
2018-05-18T03:36:18.655Z,12.90
2018-05-18T03:38:46.900Z,13.00
2018-05-18T03:41:15.932Z,12.80
2018-05-18T03:43:44.939Z,12.90
2018-05-18T03:46:13.200Z,12.90
2018-05-18T03:48:42.209Z,13.00
2018-05-18T03:51:10.440Z,12.90
2018-05-18T03:53:39.448Z,12.70
2018-05-18T03:56:07.733Z,12.90
2018-05-18T03:58:36.773Z,12.80
2018-05-18T04:01:05.017Z,13.00
2018-05-18T04:03:45.884Z,12.80
2018-05-18T04:06:26.825Z,12.80
2018-05-18T04:08:56.661Z,12.80
2018-05-18T04:11:25.681Z,13.10
2018-05-18T04:13:53.930Z,13.20
2018-05-18T04:16:22.188Z,13.10
2018-05-18T04:18:50.433Z,12.90
2018-05-18T04:21:18.675Z,12.90
2018-05-18T04:23:46.952Z,13.00
2018-05-18T04:26:15.203Z,12.50
2018-05-18T04:28:43.488Z,12.40
2018-05-18T04:31:11.769Z,12.50
2018-05-18T04:33:39.989Z,12.40
2018-05-18T04:36:09.005Z,12.30
2018-05-18T04:38:37.269Z,12.50
2018-05-18T04:41:06.309Z,12.60
2018-05-18T04:43:34.568Z,12.50
2018-05-18T04:46:03.571Z,12.60
2018-05-18T04:48:31.818Z,12.60
2018-05-18T04:51:00.929Z,12.50
2018-05-18T04:53:29.109Z,12.30
2018-05-18T04:55:58.124Z,12.30
2018-05-18T04:58:26.381Z,12.50
2018-05-18T05:00:55.412Z,12.30
2018-05-18T05:03:23.657Z,12.20
2018-05-18T05:05:52.712Z,12.60
2018-05-18T05:08:21.428Z,12.60
2018-05-18T05:10:49.901Z,12.60
2018-05-18T05:13:18.260Z,12.80
2018-05-18T05:15:46.445Z,12.80
2018-05-18T05:18:14.764Z,12.90
2018-05-18T05:20:43.828Z,12.90
2018-05-18T05:23:13.607Z,13.10
2018-05-18T05:25:41.879Z,12.90
2018-05-18T05:28:10.877Z,12.80
2018-05-18T05:30:39.117Z,13.00
2018-05-18T05:33:08.141Z,12.90
2018-05-18T05:35:37.149Z,12.80
2018-05-18T05:38:05.431Z,12.80
2018-05-18T05:40:33.998Z,12.70
2018-05-18T05:43:02.276Z,12.80
2018-05-18T05:45:30.552Z,12.80
2018-05-18T05:47:58.790Z,12.50
2018-05-18T05:50:27.219Z,12.50
2018-05-18T05:52:55.556Z,12.70
2018-05-18T05:55:23.753Z,12.80
2018-05-18T05:57:52.017Z,12.90
2018-05-18T06:00:20.310Z,12.90
2018-05-18T06:02:48.592Z,12.40
2018-05-18T06:05:16.952Z,12.40
2018-05-18T06:07:45.165Z,12.30
2018-05-18T06:10:14.266Z,12.30
2018-05-18T06:12:44.033Z,12.30
2018-05-18T06:15:13.052Z,12.60
2018-05-18T06:17:41.315Z,12.80
2018-05-18T06:20:09.584Z,13.00
2018-05-18T06:22:37.826Z,13.00
2018-05-18T06:25:07.567Z,12.90
2018-05-18T06:27:36.600Z,13.30
2018-05-18T06:30:04.835Z,12.90
2018-05-18T06:32:33.117Z,13.20
2018-05-18T06:35:03.187Z,12.70
2018-05-18T06:37:31.321Z,12.60
2018-05-18T06:40:00.331Z,12.70
2018-05-18T06:42:28.597Z,12.80
2018-05-18T06:44:57.033Z,12.80
2018-05-18T06:47:25.372Z,12.60
2018-05-18T06:49:53.653Z,12.60
2018-05-18T06:52:21.991Z,12.50
2018-05-18T06:54:50.323Z,12.60
2018-05-18T06:57:18.668Z,12.50
2018-05-18T06:59:47.301Z,12.90
2018-05-18T07:02:16.040Z,12.90
2018-05-18T07:04:45.469Z,12.80
2018-05-18T07:07:14.599Z,12.70
2018-05-18T07:09:43.581Z,12.60
2018-05-18T07:12:12.609Z,12.70
2018-05-18T07:14:40.928Z,12.80
2018-05-18T07:17:09.177Z,12.70
2018-05-18T07:19:37.573Z,12.40
2018-05-18T07:22:06.653Z,12.60
2018-05-18T07:24:35.573Z,12.50
2018-05-18T07:27:03.873Z,12.80
2018-05-18T07:29:33.005Z,12.80
2018-05-18T07:32:01.172Z,12.70
2018-05-18T07:34:30.234Z,13.20
2018-05-18T07:36:58.492Z,13.10
2018-05-18T07:39:26.737Z,13.20
2018-05-18T07:41:55.788Z,13.00
2018-05-18T07:44:24.039Z,12.90
2018-05-18T07:46:52.405Z,13.30
2018-05-18T07:49:20.661Z,13.30
2018-05-18T07:51:48.931Z,13.20
2018-05-18T07:54:17.176Z,13.10
2018-05-18T07:56:45.420Z,13.20
2018-05-18T07:59:14.472Z,13.00
2018-05-18T08:01:42.743Z,13.30
2018-05-18T08:04:11.020Z,13.40
2018-05-18T08:06:39.304Z,13.60
2018-05-18T08:09:07.585Z,13.50
2018-05-18T08:11:35.857Z,13.70
2018-05-18T08:14:04.146Z,14.00
2018-05-18T08:16:32.391Z,14.30
2018-05-18T08:19:00.675Z,14.40
2018-05-18T08:21:28.980Z,14.80
2018-05-18T08:23:58.188Z,15.10
2018-05-18T08:26:26.417Z,15.10
2018-05-18T08:29:07.310Z,14.70
2018-05-18T08:31:35.542Z,14.80
2018-05-18T08:34:03.789Z,14.70
2018-05-18T08:36:32.063Z,14.30
2018-05-18T08:39:00.296Z,14.70
2018-05-18T08:41:28.572Z,14.40
2018-05-18T08:43:56.826Z,15.00
2018-05-18T08:46:25.074Z,14.70
2018-05-18T08:48:53.316Z,14.90
2018-05-18T08:51:22.331Z,15.60
2018-05-18T08:53:50.597Z,15.60
2018-05-18T08:56:18.858Z,16.00
2018-05-18T08:58:48.597Z,15.40
2018-05-18T09:01:17.613Z,15.20
2018-05-18T09:03:45.856Z,15.50
2018-05-18T09:06:14.115Z,15.60
2018-05-18T09:08:42.360Z,15.80
2018-05-18T09:11:10.627Z,15.90
2018-05-18T09:13:39.641Z,16.20
2018-05-18T09:16:07.883Z,16.10
2018-05-18T09:18:36.147Z,16.40
2018-05-18T09:21:04.424Z,16.50
2018-05-18T09:23:32.690Z,16.30
2018-05-18T09:26:00.949Z,15.80
2018-05-18T09:28:29.956Z,15.60
2018-05-18T09:30:58.226Z,15.40
2018-05-18T09:33:26.472Z,15.70
2018-05-18T09:35:55.482Z,15.60
2018-05-18T09:38:24.499Z,15.60
2018-05-18T09:40:52.772Z,15.70
2018-05-18T09:43:21.006Z,15.80
2018-05-18T09:45:49.273Z,16.00
2018-05-18T09:48:17.536Z,15.60
2018-05-18T09:50:45.801Z,15.50
2018-05-18T09:53:14.039Z,15.70
2018-05-18T09:55:42.281Z,15.80
2018-05-18T09:58:10.554Z,15.80
2018-05-18T10:00:38.871Z,15.90
2018-05-18T10:03:07.053Z,15.80
2018-05-18T10:05:35.329Z,15.70
2018-05-18T10:08:03.586Z,16.10
2018-05-18T10:10:31.830Z,16.20
2018-05-18T10:13:00.137Z,16.20
2018-05-18T10:15:28.595Z,16.30
2018-05-18T10:17:57.626Z,16.10
2018-05-18T10:20:25.913Z,16.10
2018-05-18T10:22:54.186Z,15.90
2018-05-18T10:25:26.342Z,16.10
2018-05-18T10:27:54.622Z,16.20
2018-05-18T10:30:29.763Z,16.20
2018-05-18T10:32:58.019Z,16.10
2018-05-18T10:35:26.446Z,16.20
2018-05-18T10:37:54.681Z,16.20
2018-05-18T10:40:23.207Z,16.20
2018-05-18T10:42:53.036Z,16.10
2018-05-18T10:45:21.653Z,16.10
2018-05-18T10:47:50.068Z,16.10
2018-05-18T10:50:19.165Z,16.10
2018-05-18T10:52:48.432Z,16.30
2018-05-18T10:55:16.741Z,16.30
2018-05-18T10:57:45.789Z,16.40
2018-05-18T11:00:14.443Z,16.30
2018-05-18T11:02:42.701Z,16.30
2018-05-18T11:05:11.726Z,16.40
2018-05-18T11:07:40.007Z,16.50
2018-05-18T11:10:08.251Z,16.40
2018-05-18T11:12:37.275Z,16.80
2018-05-18T11:15:05.563Z,16.50
2018-05-18T11:17:33.945Z,16.70
2018-05-18T11:20:02.228Z,16.90
2018-05-18T11:22:30.509Z,16.90
2018-05-18T11:24:58.759Z,16.70
2018-05-18T11:27:28.852Z,17.00
2018-05-18T11:29:57.141Z,16.80
2018-05-18T11:32:25.589Z,16.90
2018-05-18T11:34:54.052Z,17.10
2018-05-18T11:37:22.388Z,17.40
2018-05-18T11:39:50.636Z,17.40
2018-05-18T11:42:19.900Z,17.10
2018-05-18T11:44:48.920Z,16.90
2018-05-18T11:47:18.475Z,16.80
2018-05-18T11:49:47.905Z,17.00
2018-05-18T11:52:17.108Z,17.20
2018-05-18T11:54:45.503Z,17.20
2018-05-18T11:57:14.947Z,17.30
2018-05-18T11:59:43.192Z,17.40
2018-05-18T12:02:11.443Z,17.50
2018-05-18T12:04:40.483Z,17.60
2018-05-18T12:07:09.540Z,17.60
2018-05-18T12:09:37.779Z,17.60
2018-05-18T12:12:06.055Z,17.80
2018-05-18T12:14:34.296Z,17.70
2018-05-18T12:17:03.359Z,17.70
2018-05-18T12:19:31.764Z,17.80
2018-05-18T12:22:01.527Z,18.10
2018-05-18T12:24:29.782Z,18.00
2018-05-18T12:26:58.830Z,17.90
2018-05-18T12:29:27.524Z,18.00
2018-05-18T12:31:55.784Z,18.00
2018-05-18T12:34:24.064Z,17.80
2018-05-18T12:36:52.343Z,18.20
2018-05-18T12:39:20.612Z,18.20
2018-05-18T12:41:48.866Z,18.20
2018-05-18T12:44:17.908Z,18.10
2018-05-18T12:46:47.557Z,18.30
2018-05-18T12:49:15.823Z,18.20
2018-05-18T12:51:44.099Z,18.20
2018-05-18T12:54:12.345Z,18.10
2018-05-18T12:56:40.637Z,18.30
2018-05-18T12:59:08.890Z,18.20
2018-05-18T13:01:37.167Z,18.30
2018-05-18T13:04:06.153Z,18.60
2018-05-18T13:06:35.213Z,18.60
2018-05-18T13:09:03.461Z,18.50
2018-05-18T13:11:32.608Z,18.40
2018-05-18T13:14:02.038Z,18.40
2018-05-18T13:16:31.073Z,18.20
2018-05-18T13:18:59.372Z,18.50
2018-05-18T13:21:27.596Z,18.50
2018-05-18T13:23:56.652Z,18.50
2018-05-18T13:26:24.914Z,18.40
2018-05-18T13:28:53.182Z,18.70
2018-05-18T13:31:21.430Z,18.70
2018-05-18T13:33:50.461Z,18.60
2018-05-18T13:36:18.701Z,18.70
2018-05-18T13:38:47.060Z,18.80
2018-05-18T13:41:16.000Z,18.90
2018-05-18T13:43:45.035Z,19.20
2018-05-18T13:46:13.280Z,19.10
2018-05-18T13:48:42.313Z,19.10
2018-05-18T13:51:10.586Z,18.80
2018-05-18T13:53:38.842Z,19.00
2018-05-18T13:56:07.874Z,19.10
2018-05-18T13:58:36.119Z,19.20
2018-05-18T14:01:05.154Z,18.80
2018-05-18T14:03:33.393Z,18.90
2018-05-18T14:06:02.432Z,18.90
2018-05-18T14:08:30.736Z,19.00
2018-05-18T14:10:59.046Z,18.70
2018-05-18T14:13:27.271Z,19.00
2018-05-18T14:15:55.528Z,18.70
2018-05-18T14:18:24.544Z,18.90
2018-05-18T14:20:52.877Z,19.10
2018-05-18T14:23:21.827Z,18.80
2018-05-18T14:25:50.085Z,19.00
2018-05-18T14:28:19.121Z,19.10
2018-05-18T14:30:47.418Z,18.80
2018-05-18T14:33:15.664Z,18.90
2018-05-18T14:35:43.963Z,18.90
2018-05-18T14:38:12.252Z,18.90
2018-05-18T14:40:40.483Z,18.80
2018-05-18T14:43:08.733Z,19.10
2018-05-18T14:45:37.021Z,18.90
2018-05-18T14:48:06.026Z,18.90
2018-05-18T14:50:35.066Z,18.90
2018-05-18T14:53:03.441Z,19.10
2018-05-18T14:55:31.713Z,19.10
2018-05-18T14:57:59.948Z,19.30
2018-05-18T15:00:29.001Z,19.30
2018-05-18T15:02:57.325Z,19.20
2018-05-18T15:05:25.600Z,19.20
2018-05-18T15:07:53.847Z,19.10
2018-05-18T15:10:22.728Z,19.40
2018-05-18T15:12:50.974Z,19.60
2018-05-18T15:15:20.008Z,19.30
2018-05-18T15:17:48.281Z,19.40
2018-05-18T15:20:16.537Z,19.40
2018-05-18T15:22:45.549Z,19.20
2018-05-18T15:25:13.826Z,19.20
2018-05-18T15:27:42.857Z,19.30
2018-05-18T15:30:11.168Z,19.10
2018-05-18T15:32:39.407Z,19.40
2018-05-18T15:35:07.685Z,19.60
2018-05-18T15:37:35.948Z,19.40
2018-05-18T15:40:04.200Z,19.60
2018-05-18T15:42:32.572Z,19.40
2018-05-18T15:45:00.833Z,19.40
2018-05-18T15:47:29.138Z,19.60
2018-05-18T15:49:57.411Z,19.20
2018-05-18T15:52:25.655Z,19.40
2018-05-18T15:54:53.946Z,19.50
2018-05-18T15:57:22.219Z,19.20
2018-05-18T15:59:50.501Z,19.30
2018-05-18T16:02:18.748Z,19.40
2018-05-18T16:04:47.247Z,19.30
2018-05-18T16:07:15.753Z,19.20
2018-05-18T16:09:44.013Z,19.30
2018-05-18T16:12:12.260Z,19.20
2018-05-18T16:14:41.322Z,19.40
2018-05-18T16:17:09.585Z,19.10
2018-05-18T16:19:38.783Z,19.00
2018-05-18T16:22:07.060Z,19.00
2018-05-18T16:24:35.319Z,19.10
2018-05-18T16:27:04.348Z,19.20
2018-05-18T16:29:32.614Z,19.30
2018-05-18T16:32:00.897Z,19.30
2018-05-18T16:34:29.910Z,19.10
2018-05-18T16:36:58.509Z,19.30
2018-05-18T16:39:26.772Z,19.20
2018-05-18T16:41:55.020Z,19.10
2018-05-18T16:44:25.065Z,18.90
2018-05-18T16:46:53.376Z,19.20
2018-05-18T16:49:21.653Z,19.00
2018-05-18T16:51:49.933Z,18.80
2018-05-18T16:54:18.216Z,18.80
2018-05-18T16:56:46.472Z,18.90
2018-05-18T16:59:14.755Z,18.80
2018-05-18T17:01:43.048Z,19.10
2018-05-18T17:04:11.306Z,18.70
2018-05-18T17:06:39.857Z,18.90
2018-05-18T17:09:08.838Z,18.80
2018-05-18T17:11:37.067Z,18.90
2018-05-18T17:14:05.344Z,18.70
2018-05-18T17:16:33.590Z,18.90
2018-05-18T17:19:02.144Z,19.00
2018-05-18T17:21:30.397Z,18.70
2018-05-18T17:23:59.445Z,18.80
2018-05-18T17:26:27.726Z,18.90
2018-05-18T17:28:55.989Z,18.70
2018-05-18T17:31:24.321Z,18.50
2018-05-18T17:33:52.602Z,18.50
2018-05-18T17:36:21.619Z,18.50
2018-05-18T17:38:49.914Z,18.50
2018-05-18T17:41:18.177Z,18.60
2018-05-18T17:43:46.460Z,18.40
2018-05-18T17:46:15.909Z,18.30
2018-05-18T17:48:44.185Z,18.30
2018-05-18T17:51:12.420Z,18.00
2018-05-18T17:53:40.708Z,18.10
2018-05-18T17:56:08.980Z,18.30
2018-05-18T17:58:38.005Z,18.00
2018-05-18T18:01:06.265Z,18.00
2018-05-18T18:03:35.395Z,17.90
2018-05-18T18:06:03.975Z,17.90
2018-05-18T18:08:32.208Z,17.90
2018-05-18T18:11:00.440Z,17.90
2018-05-18T18:13:28.729Z,17.60
2018-05-18T18:15:56.963Z,17.80
2018-05-18T18:18:25.999Z,17.70
2018-05-18T18:20:55.189Z,17.90
2018-05-18T18:23:23.473Z,17.50
2018-05-18T18:25:52.660Z,17.70
2018-05-18T18:28:21.680Z,17.50
2018-05-18T18:30:50.169Z,17.60
2018-05-18T18:33:18.415Z,17.40
2018-05-18T18:35:46.685Z,17.30
2018-05-18T18:38:15.748Z,17.50
2018-05-18T18:40:44.025Z,17.30
2018-05-18T18:43:12.291Z,17.10
2018-05-18T18:45:40.553Z,17.30
2018-05-18T18:48:08.815Z,17.20
2018-05-18T18:50:37.064Z,17.20
2018-05-18T18:53:05.324Z,17.30
2018-05-18T18:55:33.593Z,17.10
2018-05-18T18:58:01.836Z,17.00
2018-05-18T19:00:30.140Z,17.40
2018-05-18T19:02:58.451Z,17.30
2018-05-18T19:05:27.606Z,17.20
2018-05-18T19:07:56.735Z,17.10
2018-05-18T19:10:24.924Z,17.40
2018-05-18T19:12:53.188Z,17.10
2018-05-18T19:15:21.527Z,17.00
2018-05-18T19:17:49.785Z,17.00
2018-05-18T19:20:18.019Z,17.20
2018-05-18T19:22:46.285Z,17.40
2018-05-18T19:25:14.528Z,17.20
2018-05-18T19:27:42.811Z,17.20
2018-05-18T19:30:11.047Z,17.00
2018-05-18T19:32:39.315Z,17.00
2018-05-18T19:35:07.565Z,16.90
2018-05-18T19:37:35.821Z,16.80
2018-05-18T19:40:04.059Z,17.00
2018-05-18T19:42:32.320Z,16.90
2018-05-18T19:45:00.567Z,17.10
2018-05-18T19:47:28.842Z,16.80
2018-05-18T19:49:57.098Z,17.10
2018-05-18T19:52:25.334Z,16.90
2018-05-18T19:54:54.354Z,16.90
2018-05-18T19:57:23.379Z,17.00
2018-05-18T20:02:35.054Z,17.20
2018-05-18T20:05:03.292Z,17.10
2018-05-18T20:07:31.556Z,16.90
2018-05-18T20:09:59.818Z,17.20
2018-05-18T20:12:28.086Z,17.30
2018-05-18T20:14:56.324Z,17.10
2018-05-18T20:17:25.373Z,16.70
2018-05-18T20:19:53.613Z,16.70
2018-05-18T20:22:22.635Z,17.10
2018-05-18T20:24:50.874Z,17.20
2018-05-18T20:27:19.147Z,17.10
2018-05-18T20:29:47.410Z,17.30
2018-05-18T20:32:15.681Z,17.00
2018-05-18T20:34:43.933Z,16.80
2018-05-18T20:37:12.211Z,17.20
2018-05-18T20:39:40.483Z,17.30
2018-05-18T20:42:08.787Z,17.30
2018-05-18T20:44:37.055Z,17.10
2018-05-18T20:47:05.372Z,17.10
2018-05-18T20:49:33.894Z,17.10
2018-05-18T20:52:03.140Z,16.90
2018-05-18T20:54:31.404Z,16.70
2018-05-18T20:56:59.652Z,16.80
2018-05-18T20:59:28.671Z,16.70
2018-05-18T21:01:57.694Z,16.70
2018-05-18T21:04:25.965Z,16.60
2018-05-18T21:06:54.214Z,16.40
2018-05-18T21:09:23.274Z,16.40
2018-05-18T21:11:51.550Z,16.40
2018-05-18T21:14:19.800Z,16.00
2018-05-18T21:16:48.113Z,16.00
2018-05-18T21:19:16.350Z,16.10
2018-05-18T21:21:44.636Z,16.00
2018-05-18T21:24:12.914Z,16.00
2018-05-18T21:26:41.183Z,15.70
2018-05-18T21:29:10.217Z,15.40
2018-05-18T21:31:38.509Z,15.40
2018-05-18T21:34:06.782Z,15.50
2018-05-18T21:36:35.029Z,15.40
2018-05-18T21:39:04.061Z,15.50
2018-05-18T21:41:32.305Z,15.30
2018-05-18T21:44:01.343Z,15.30
2018-05-18T21:46:29.570Z,15.40
2018-05-18T21:48:58.601Z,15.20
2018-05-18T21:51:26.840Z,15.40
2018-05-18T21:53:55.857Z,15.30
2018-05-18T21:56:24.871Z,15.50
2018-05-18T21:58:53.117Z,15.20
2018-05-18T22:01:21.376Z,15.20
2018-05-18T22:03:49.640Z,14.90
2018-05-18T22:06:18.111Z,14.90
2018-05-18T22:08:46.364Z,14.90
2018-05-18T22:11:15.373Z,14.70
2018-05-18T22:13:43.645Z,14.70
2018-05-18T22:16:11.882Z,14.60
2018-05-18T22:18:40.144Z,14.60
2018-05-18T22:21:08.396Z,14.70
2018-05-18T22:23:36.701Z,14.60
2018-05-18T22:26:04.972Z,14.50
2018-05-18T22:28:33.216Z,14.40
2018-05-18T22:31:02.242Z,14.80
2018-05-18T22:33:30.506Z,14.60
2018-05-18T22:35:58.747Z,14.60
2018-05-18T22:38:27.022Z,14.60
2018-05-18T22:40:55.281Z,14.50
2018-05-18T22:43:23.529Z,14.80
2018-05-18T22:45:51.797Z,14.70
2018-05-18T22:48:20.917Z,14.70
2018-05-18T22:50:49.222Z,14.90
2018-05-18T22:53:17.479Z,15.00
2018-05-18T22:55:45.754Z,14.90
2018-05-18T22:58:14.035Z,14.70
2018-05-18T23:00:43.044Z,14.80
2018-05-18T23:03:11.307Z,14.70
2018-05-18T23:05:39.611Z,14.90
2018-05-18T23:08:07.847Z,14.60
2018-05-18T23:10:36.874Z,14.60
2018-05-18T23:13:05.126Z,15.00
2018-05-18T23:15:34.429Z,14.80
2018-05-18T23:18:04.171Z,14.90
2018-05-18T23:20:32.543Z,15.10
2018-05-18T23:23:01.563Z,14.70
2018-05-18T23:25:29.824Z,14.60
2018-05-18T23:27:58.854Z,14.50
2018-05-18T23:30:27.085Z,14.60
2018-05-18T23:32:56.111Z,14.40
2018-05-18T23:35:24.366Z,14.80
2018-05-18T23:37:53.385Z,14.70
2018-05-18T23:40:21.634Z,14.60
2018-05-18T23:42:50.667Z,14.80
2018-05-18T23:45:18.914Z,14.80
2018-05-18T23:47:47.180Z,14.60
2018-05-18T23:50:15.528Z,14.60
2018-05-18T23:52:43.779Z,14.60
2018-05-18T23:55:12.026Z,14.70
2018-05-18T23:57:40.288Z,14.60
